Rechercher aéroport 
image banner adimage banner adimage banner ad
image banner ad

KSMX - Santa Maria Pub/Capt G Allan Hancock Fld

Situé à Santa Maria, United States

ICAO - SMX, IATA - SMX

Données fournies par Airmate  

Information générale

Coordonnées: N34°53'60" W120°27'29"
Élévation : 261 feet MSL.
Variation magnétique : 14° East
Voir autres Aéroports à California

Données opérationnelles

Special qualification required
Heure actuelle UTC:
Heure actuelle locale:
Météo
METAR: KSMX 251251Z COR 00000KT 4SM BR OVC003 13/12 A2998 RMK AO2 SLP155 T01280117
TAF: KSMX 251158Z 2512/2612 VRB03KT 2SM BR OVC002 FM251600 VRB03KT 4SM BR BKN005 BKN120 FM251800 30008KT P6SM BKN120 FM260400 VRB03KT 6SM BR BKN007 BKN120 FM260800 VRB03KT 2SM BR OVC003
Voir NOTAMs / SUP AIP / TFR affectant cet aéroport [VIEW]
Fréquences de communication: [VIEW]

Pistes:

Identifiant RWYQFULongueur (ft)Largeur (ft)SurfaceLDA (ft)
0236°519975ASPH5199
20216°519975ASPH5199
12135°8004150ASPH8004
30315°8004150ASPH8004

Coordonnées de l'aéroport

Adresse: Santa Maria United States

Vue satellite de KSMX